Time;durP1;ratioP1;P1;durP2;ratioP2;P2;SDS_P1;SDS_P2;PMS_P1;PMS_P2;Temp;Humidity;BMP_temperature;BMP_pressure;BME280_temperature;BME280_humidity;BME280_pressure;Samples;Min_cycle;Max_cycle;Signal;HPM_P1;HPM_P2
2021/11/26 00:00:01;;;;;;;;;8.75;6.75;;;;;5.23;77.42;100234.75;5023379;28;45434;-76
2021/11/26 00:02:27;;;;;;;;;7.75;5.75;;;;;5.22;78.52;100240.00;5018210;28;46748;-76
2021/11/26 00:04:54;;;;;;;;;5.75;5.75;;;;;5.27;78.13;100245.94;5016678;28;45234;-76
2021/11/26 00:07:20;;;;;;;;;7.00;7.00;;;;;5.26;78.02;100252.94;5017093;28;45274;-78
2021/11/26 00:09:47;;;;;;;;;8.00;6.00;;;;;5.26;78.14;100244.25;5016528;28;45418;-77
2021/11/26 00:12:13;;;;;;;;;10.25;6.75;;;;;5.19;77.92;100227.91;5017935;28;45558;-76
2021/11/26 00:15:19;;;;;;;;;10.75;5.75;;;;;5.19;78.18;100238.31;5020702;28;45369;-77
2021/11/26 00:17:34;;;;;;;;;9.25;7.50;;;;;5.22;78.25;100237.38;5016964;27;45538;-75
2021/11/26 00:19:59;;;;;;;;;7.00;4.00;;;;;5.20;78.06;100228.75;5015421;28;45522;-78
2021/11/26 00:22:25;;;;;;;;;9.50;3.00;;;;;5.19;78.67;100237.44;5017423;28;45443;-78
2021/11/26 00:24:52;;;;;;;;;17.75;14.25;;;;;5.16;78.77;100227.09;5018292;28;45390;-77
2021/11/26 00:27:18;;;;;;;;;9.75;7.00;;;;;5.15;78.21;100228.00;5019219;28;45253;-76
2021/11/26 00:29:43;;;;;;;;;7.00;6.25;;;;;5.02;78.25;100210.03;5016320;28;45210;-76
2021/11/26 00:32:09;;;;;;;;;8.00;8.00;;;;;5.14;78.04;100236.69;5016679;28;45342;-77
2021/11/26 00:34:34;;;;;;;;;9.00;6.00;;;;;5.08;78.34;100228.13;5017221;28;45242;-77
2021/11/26 00:36:59;;;;;;;;;13.25;7.25;;;;;5.15;77.67;100233.19;5016713;28;45344;-78
2021/11/26 00:39:25;;;;;;;;;10.00;6.25;;;;;5.14;78.38;100232.38;5019792;28;45529;-77
2021/11/26 00:41:51;;;;;;;;;7.75;5.75;;;;;5.12;78.10;100229.78;5018366;28;45311;-77
2021/11/26 00:44:16;;;;;;;;;9.00;6.00;;;;;5.12;78.33;100226.31;5019703;28;45321;-77
2021/11/26 00:46:42;;;;;;;;;8.00;6.00;;;;;5.05;77.79;100219.53;5015440;28;45399;-77
2021/11/26 00:49:07;;;;;;;;;11.00;7.50;;;;;5.09;78.02;100216.81;5015675;28;45411;-75
2021/11/26 00:51:32;;;;;;;;;6.50;5.50;;;;;5.09;78.06;100224.63;5015280;28;46297;-77
2021/11/26 00:53:59;;;;;;;;;10.50;7.25;;;;;5.10;77.69;100218.53;5015881;28;45313;-78
2021/11/26 00:56:24;;;;;;;;;11.75;8.25;;;;;5.10;77.75;100213.31;5016260;28;45376;-75
2021/11/26 00:58:50;;;;;;;;;15.25;11.00;;;;;5.12;78.05;100211.53;5015920;28;45495;-76
2021/11/26 01:01:15;;;;;;;;;10.25;8.25;;;;;5.04;77.87;100192.59;5015650;28;45401;-75
2021/11/26 01:03:40;;;;;;;;;11.00;9.50;;;;;5.12;77.83;100208.91;5016557;28;45445;-75
2021/11/26 01:06:06;;;;;;;;;11.00;9.00;;;;;5.14;77.65;100206.28;5015280;28;45322;-76
2021/11/26 01:08:32;;;;;;;;;10.00;6.25;;;;;5.10;77.94;100197.66;5015060;28;45344;-75
2021/11/26 01:10:57;;;;;;;;;7.00;7.00;;;;;5.18;77.75;100207.06;5014575;28;46472;-76
2021/11/26 01:13:23;;;;;;;;;11.00;10.00;;;;;5.17;77.31;100198.41;5015033;28;45235;-76
2021/11/26 01:15:48;;;;;;;;;16.75;11.50;;;;;5.17;77.52;100203.59;5014934;28;45313;-76
2021/11/26 01:18:15;;;;;;;;;11.25;9.75;;;;;5.18;77.24;100200.09;5015421;28;45332;-77
2021/11/26 01:20:41;;;;;;;;;11.00;7.00;;;;;5.17;77.65;100192.31;5015577;28;46119;-77
2021/11/26 01:23:07;;;;;;;;;11.50;11.50;;;;;5.06;77.11;100185.59;5015023;28;45269;-77
2021/11/26 01:25:33;;;;;;;;;7.00;7.00;;;;;5.16;77.50;100186.25;5015864;28;45370;-75
2021/11/26 01:27:59;;;;;;;;;14.50;7.75;;;;;5.21;77.20;100186.13;5021518;28;45499;-77
2021/11/26 01:32:59;;;;;;;;;8.00;5.00;;;;;5.21;76.93;100187.00;5017291;28;45546;-76
2021/11/26 01:35:25;;;;;;;;;9.50;9.25;;;;;5.18;76.84;100187.06;5015867;28;45319;-76
2021/11/26 01:37:51;;;;;;;;;11.00;8.00;;;;;5.18;76.93;100181.84;5016198;28;45598;-75
2021/11/26 01:40:18;;;;;;;;;11.50;9.25;;;;;5.09;76.49;100164.66;5016226;28;45943;-77
2021/11/26 01:42:44;;;;;;;;;13.50;11.75;;;;;5.17;76.80;100179.28;5022246;28;45230;-77
2021/11/26 01:45:10;;;;;;;;;11.25;7.50;;;;;5.18;76.44;100171.44;5022482;28;44824;-77
2021/11/26 01:47:35;;;;;;;;;13.25;7.00;;;;;5.16;76.97;100170.59;5019161;27;45590;-76
2021/11/26 01:50:03;;;;;;;;;13.00;8.25;;;;;5.15;76.81;100165.41;5017788;28;46036;-76
2021/11/26 01:52:28;;;;;;;;;13.00;10.75;;;;;5.07;76.62;100149.97;5020385;28;45522;-77
2021/11/26 01:54:54;;;;;;;;;11.50;7.75;;;;;5.11;77.11;100157.66;5016957;28;45405;-75
2021/11/26 01:57:19;;;;;;;;;11.25;9.00;;;;;5.15;76.23;100157.59;5014837;28;45342;-75
2021/11/26 01:59:50;;;;;;;;;10.00;7.75;;;;;5.14;76.55;100154.13;5014359;28;46075;-76
2021/11/26 02:02:16;;;;;;;;;11.00;10.00;;;;;5.17;76.54;100148.84;5014852;28;45397;-75
2021/11/26 02:04:42;;;;;;;;;10.00;10.00;;;;;5.14;76.75;100140.22;5013220;28;45356;-75
2021/11/26 02:07:07;;;;;;;;;9.25;5.00;;;;;5.14;76.64;100143.72;5014560;28;45390;-76
2021/11/26 02:09:33;;;;;;;;;12.75;9.50;;;;;5.15;77.03;100141.94;5013923;28;46153;-72
2021/11/26 02:11:58;;;;;;;;;10.50;10.00;;;;;5.12;76.81;100137.69;5015942;28;45302;-74
2021/11/26 02:14:24;;;;;;;;;12.75;8.75;;;;;5.07;76.67;100122.13;5016047;28;45283;-74
2021/11/26 02:16:50;;;;;;;;;15.75;11.00;;;;;5.09;77.12;100127.31;5017543;28;45298;-73
2021/11/26 02:19:16;;;;;;;;;13.00;10.00;;;;;5.07;76.84;100129.13;5019759;28;45326;-74
2021/11/26 02:21:42;;;;;;;;;12.50;10.75;;;;;5.06;77.11;100112.59;5020147;28;45518;-72
2021/11/26 02:24:09;;;;;;;;;11.75;10.50;;;;;5.05;77.05;100110.88;5018100;28;45385;-75
2021/11/26 02:26:43;;;;;;;;;15.00;12.75;;;;;5.06;77.23;100107.38;5015113;28;45258;-74
2021/11/26 02:29:10;;;;;;;;;12.25;10.00;;;;;5.05;77.16;100100.47;5014942;28;45408;-77
2021/11/26 02:31:36;;;;;;;;;12.75;10.00;;;;;5.07;77.10;100101.28;5015503;28;45507;-73
2021/11/26 02:34:01;;;;;;;;;12.00;11.25;;;;;4.89;76.60;100073.94;5014210;28;45401;-75
2021/11/26 02:36:27;;;;;;;;;12.50;10.00;;;;;5.00;77.10;100088.47;5015795;28;45343;-75
2021/11/26 02:38:53;;;;;;;;;13.75;12.50;;;;;4.97;76.96;100089.38;5016366;28;45414;-76
2021/11/26 02:41:18;;;;;;;;;12.50;10.50;;;;;5.01;77.41;100093.63;5018190;28;45259;-74
2021/11/26 02:43:44;;;;;;;;;11.50;9.75;;;;;5.01;77.50;100098.00;5014925;28;45317;-76
2021/11/26 02:46:09;;;;;;;;;10.50;10.25;;;;;5.01;77.24;100098.81;5014445;28;45568;-74
2021/11/26 02:48:35;;;;;;;;;8.00;6.75;;;;;4.72;77.43;100044.81;5013789;28;46545;-74
2021/11/26 02:51:00;;;;;;;;;9.75;8.75;;;;;4.99;77.52;100086.75;5013680;28;45408;-77
2021/11/26 02:53:26;;;;;;;;;11.25;10.25;;;;;4.94;77.64;100081.63;5013628;28;45217;-75
2021/11/26 02:55:51;;;;;;;;;11.00;11.00;;;;;4.92;77.69;100083.41;5014505;27;45315;-74
2021/11/26 02:58:17;;;;;;;;;14.75;12.00;;;;;4.90;77.72;100069.56;5013350;28;46330;-75
2021/11/26 03:00:47;;;;;;;;;18.25;13.00;;;;;4.86;78.14;100061.00;5013689;28;45258;-75
2021/11/26 03:03:12;;;;;;;;;11.25;10.25;;;;;4.90;78.10;100069.56;5012426;28;45435;-74
2021/11/26 03:05:38;;;;;;;;;13.75;10.75;;;;;4.86;78.16;100066.19;5014967;28;45538;-73
2021/11/26 03:08:04;;;;;;;;;11.25;8.25;;;;;4.84;78.41;100060.16;5015111;28;45988;-75
2021/11/26 03:10:30;;;;;;;;;12.00;10.50;;;;;4.78;78.26;100055.13;5012062;27;45343;-77
2021/11/26 03:12:58;;;;;;;;;12.75;10.00;;;;;4.76;78.25;100056.88;5014391;28;45400;-75
2021/11/26 03:15:25;;;;;;;;;14.00;11.25;;;;;4.73;78.44;100050.00;5013308;28;45263;-75
2021/11/26 03:17:52;;;;;;;;;13.00;10.00;;;;;4.69;78.92;100050.97;5014075;28;46196;-73
2021/11/26 03:20:18;;;;;;;;;10.00;8.50;;;;;4.65;78.54;100050.16;5017619;28;45419;-76
2021/11/26 03:22:44;;;;;;;;;16.75;12.00;;;;;4.61;78.87;100051.13;5015879;28;45411;-75
2021/11/26 03:25:10;;;;;;;;;13.00;11.50;;;;;4.57;79.20;100040.84;5015437;28;45432;-76
2021/11/26 03:27:36;;;;;;;;;10.00;7.00;;;;;4.53;79.56;100043.53;5012146;28;48005;-77
2021/11/26 03:30:03;;;;;;;;;11.50;9.00;;;;;4.50;79.34;100034.91;5013582;28;45277;-76
2021/11/26 03:32:29;;;;;;;;;16.00;12.00;;;;;4.48;79.46;100034.09;5014128;28;45333;-75
2021/11/26 03:34:54;;;;;;;;;15.00;11.50;;;;;4.44;79.89;100025.50;5012067;28;45493;-76
2021/11/26 03:37:20;;;;;;;;;10.75;7.25;;;;;4.43;79.56;100018.59;5012931;28;45300;-76
2021/11/26 03:39:45;;;;;;;;;9.25;7.50;;;;;4.43;79.72;100013.38;5013775;28;45234;-76
2021/11/26 03:42:10;;;;;;;;;13.00;12.00;;;;;4.43;79.78;100012.50;5015156;28;45395;-75
2021/11/26 03:44:36;;;;;;;;;11.75;10.00;;;;;4.41;79.78;99998.69;5020905;28;45598;-75
2021/11/26 03:47:02;;;;;;;;;10.25;8.75;;;;;4.42;79.73;100005.59;5016605;28;45921;-74
2021/11/26 03:49:27;;;;;;;;;11.50;9.00;;;;;4.41;79.92;99994.34;5014933;28;45358;-75
2021/11/26 03:51:52;;;;;;;;;12.00;10.00;;;;;4.36;80.30;99985.78;5013438;28;45374;-76
2021/11/26 03:54:18;;;;;;;;;14.75;10.00;;;;;4.33;79.88;99975.44;5013754;28;45618;-76
2021/11/26 03:56:43;;;;;;;;;9.50;9.25;;;;;4.41;80.27;99981.31;5014685;28;46114;-75
2021/11/26 03:59:09;;;;;;;;;12.25;9.25;;;;;4.37;80.33;99979.69;5015103;28;45455;-76
2021/11/26 04:01:34;;;;;;;;;10.00;10.00;;;;;4.41;79.73;99978.72;5013850;28;45259;-76
2021/11/26 04:04:00;;;;;;;;;11.50;10.00;;;;;4.42;80.50;99975.22;5014813;28;45503;-78
2021/11/26 04:06:26;;;;;;;;;10.00;9.00;;;;;4.42;80.04;99975.22;5018146;28;45240;-77
2021/11/26 04:08:51;;;;;;;;;15.50;9.00;;;;;4.34;80.12;99962.38;5012440;28;45292;-75
2021/11/26 04:11:17;;;;;;;;;11.75;8.75;;;;;4.41;80.27;99972.63;5012375;28;45256;-75
2021/11/26 04:13:42;;;;;;;;;12.50;9.50;;;;;4.39;80.43;99960.50;5012991;28;45650;-74
2021/11/26 04:16:13;;;;;;;;;12.25;11.00;;;;;4.43;80.44;99957.81;5012475;28;45372;-76
2021/11/26 04:18:39;;;;;;;;;11.50;9.50;;;;;4.43;80.15;99956.09;5012008;28;45381;-74
2021/11/26 04:21:04;;;;;;;;;12.00;11.25;;;;;4.44;80.24;99944.78;5016871;28;45416;-76
2021/11/26 04:23:30;;;;;;;;;12.00;6.75;;;;;4.46;80.46;99940.38;5014232;28;45588;-75
2021/11/26 04:25:56;;;;;;;;;12.00;8.75;;;;;4.58;80.24;99959.19;5015543;28;46897;-75
2021/11/26 04:28:22;;;;;;;;;12.00;7.00;;;;;4.62;79.98;99948.66;5015456;28;45476;-76
2021/11/26 04:30:47;;;;;;;;;9.00;7.25;;;;;4.66;79.98;99945.06;5015580;28;45246;-75
2021/11/26 04:33:13;;;;;;;;;10.00;8.25;;;;;4.72;79.97;99943.19;5015957;28;45573;-76
2021/11/26 04:35:38;;;;;;;;;13.75;10.00;;;;;4.75;80.00;99941.38;5015228;28;46034;-76
2021/11/26 04:38:03;;;;;;;;;13.75;10.25;;;;;4.78;79.85;99930.03;5015320;28;45432;-75
2021/11/26 04:40:29;;;;;;;;;12.75;11.50;;;;;4.88;79.93;99933.22;5015681;28;45284;-75
2021/11/26 04:42:54;;;;;;;;;9.50;9.00;;;;;4.94;79.85;99930.47;5015752;28;45165;-74
2021/11/26 04:45:20;;;;;;;;;12.00;10.75;;;;;4.92;79.85;99911.41;5017374;28;45319;-77
2021/11/26 04:47:45;;;;;;;;;11.00;10.00;;;;;5.02;79.81;99914.63;5018657;28;45289;-76
2021/11/26 04:50:14;;;;;;;;;9.25;9.25;;;;;5.06;79.00;99917.09;5017540;28;45427;-77
2021/11/26 04:52:39;;;;;;;;;12.25;12.00;;;;;5.09;79.25;99916.16;5015517;28;45421;-75
2021/11/26 04:55:06;;;;;;;;;11.00;9.50;;;;;5.12;79.01;99923.88;5015063;28;46531;-76
2021/11/26 04:57:32;;;;;;;;;10.25;10.00;;;;;5.11;79.05;99917.81;5015367;28;45377;-74
2021/11/26 04:59:57;;;;;;;;;11.00;10.50;;;;;5.10;78.88;99918.72;5014278;28;45317;-76
2021/11/26 05:02:23;;;;;;;;;12.25;11.25;;;;;5.10;78.67;99910.03;5015721;28;45586;-76
2021/11/26 05:04:48;;;;;;;;;11.25;10.00;;;;;5.10;78.57;99900.47;5015128;28;46052;-76
2021/11/26 05:07:16;;;;;;;;;11.25;10.00;;;;;5.12;78.71;99906.47;5014976;28;45406;-76
2021/11/26 05:09:41;;;;;;;;;13.75;12.25;;;;;5.12;78.09;99897.81;5018554;28;45368;-72
2021/11/26 05:12:07;;;;;;;;;13.25;12.50;;;;;5.10;78.47;99890.03;5016181;28;45333;-73
2021/11/26 05:14:34;;;;;;;;;13.75;11.50;;;;;5.09;78.24;99882.28;5014707;28;46265;-74
2021/11/26 05:16:59;;;;;;;;;17.25;12.75;;;;;5.07;78.35;99868.44;5015433;28;45413;-77
2021/11/26 05:19:25;;;;;;;;;15.25;12.00;;;;;5.08;78.17;99875.34;5014729;28;45260;-73
2021/11/26 05:21:50;;;;;;;;;11.25;10.75;;;;;5.16;77.89;99881.19;5015070;28;45494;-73
2021/11/26 05:24:16;;;;;;;;;15.75;11.50;;;;;5.17;78.44;99879.41;5014749;28;46285;-74
2021/11/26 05:26:41;;;;;;;;;14.00;11.75;;;;;5.16;78.29;99869.91;5013461;28;45265;-73
2021/11/26 05:29:08;;;;;;;;;14.00;12.00;;;;;5.20;78.45;99861.09;5015008;28;45254;-72
2021/11/26 05:31:36;;;;;;;;;16.25;10.75;;;;;5.18;78.00;99842.88;5014521;28;45649;-75
2021/11/26 05:34:06;;;;;;;;;13.00;12.50;;;;;5.21;77.80;99847.16;5016714;28;46163;-77
2021/11/26 05:36:32;;;;;;;;;12.75;10.25;;;;;5.18;77.90;99837.69;5016457;28;45266;-73
2021/11/26 05:38:58;;;;;;;;;18.75;14.25;;;;;5.20;78.05;99833.28;5016895;28;45315;-75
2021/11/26 05:41:23;;;;;;;;;19.50;12.25;;;;;5.21;77.70;99828.88;5016559;28;45727;-72
2021/11/26 05:43:49;;;;;;;;;13.50;13.00;;;;;5.21;77.43;99827.16;5016676;28;47098;-72
2021/11/26 05:46:15;;;;;;;;;13.00;12.25;;;;;5.17;77.67;99817.72;5018305;28;45198;-76
2021/11/26 05:48:41;;;;;;;;;18.25;12.50;;;;;5.21;77.73;99818.47;5018316;28;45431;-76
2021/11/26 05:51:06;;;;;;;;;14.75;12.00;;;;;5.22;77.30;99814.94;5014690;28;45484;-76
2021/11/26 05:53:32;;;;;;;;;16.50;10.50;;;;;5.26;77.47;99813.97;5014032;28;46224;-74
2021/11/26 05:55:59;;;;;;;;;18.00;14.00;;;;;5.29;77.53;99811.25;5020651;28;45323;-75
2021/11/26 05:58:26;;;;;;;;;15.00;13.50;;;;;5.31;76.91;99811.22;5015994;28;45307;-77
2021/11/26 06:00:51;;;;;;;;;11.50;10.50;;;;;5.34;76.84;99809.38;5015916;28;45481;-76
2021/11/26 06:03:16;;;;;;;;;13.50;10.50;;;;;5.38;77.35;99802.31;5014610;28;45230;-77
2021/11/26 06:05:44;;;;;;;;;14.50;12.75;;;;;5.35;76.80;99794.59;5014815;28;45177;-76
2021/11/26 06:08:10;;;;;;;;;13.50;13.50;;;;;5.38;76.79;99797.97;4998673;27;45266;-75
2021/11/26 06:10:35;;;;;;;;;13.75;11.75;;;;;5.35;77.04;99779.81;5015147;28;45389;-75
2021/11/26 06:13:01;;;;;;;;;12.00;12.00;;;;;5.35;76.66;99784.16;5015221;28;45584;-77
2021/11/26 06:15:26;;;;;;;;;28.50;16.25;;;;;5.33;76.60;99780.72;5015469;28;45315;-75
2021/11/26 06:17:51;;;;;;;;;16.75;13.75;;;;;5.19;76.52;99755.94;5016739;28;45311;-77
2021/11/26 06:20:18;;;;;;;;;15.50;13.25;;;;;5.32;76.65;99777.28;5019665;28;45664;-76
2021/11/26 06:22:44;;;;;;;;;24.50;15.75;;;;;5.22;76.75;99771.50;5021049;28;45295;-76
2021/11/26 06:25:14;;;;;;;;;19.25;13.50;;;;;5.29;76.79;99771.31;5015676;28;45524;-75
2021/11/26 06:27:41;;;;;;;;;13.50;13.50;;;;;5.25;77.17;99766.19;5014438;28;45278;-74
2021/11/26 06:30:10;;;;;;;;;16.25;15.00;;;;;5.20;76.79;99767.22;5014248;28;45340;-77
2021/11/26 06:32:35;;;;;;;;;14.50;11.75;;;;;5.23;76.67;99765.38;5014256;28;47223;-77
2021/11/26 06:35:00;;;;;;;;;13.50;11.00;;;;;5.21;76.61;99761.97;5014970;28;45388;-74
2021/11/26 06:37:26;;;;;;;;;17.25;13.25;;;;;5.25;76.87;99752.28;5016355;28;45219;-74
2021/11/26 06:39:51;;;;;;;;;17.75;13.25;;;;;5.25;76.59;99749.66;5014795;28;45363;-76
2021/11/26 06:42:17;;;;;;;;;28.75;24.50;;;;;5.28;76.96;99746.97;5022452;28;46003;-76
2021/11/26 06:44:42;;;;;;;;;13.00;12.25;;;;;5.30;76.25;99737.38;5023801;28;45304;-75
2021/11/26 06:47:07;;;;;;;;;15.50;12.00;;;;;5.35;76.37;99738.06;5018342;28;45265;-75
2021/11/26 06:49:33;;;;;;;;;16.50;14.25;;;;;5.30;75.93;99723.47;5017406;28;45475;-75
2021/11/26 06:51:58;;;;;;;;;16.25;12.50;;;;;5.34;75.32;99727.69;5013260;28;46460;-75
2021/11/26 06:54:24;;;;;;;;;13.00;12.25;;;;;5.26;75.42;99713.13;5013416;28;45216;-76
2021/11/26 06:56:49;;;;;;;;;10.75;7.00;;;;;5.30;75.52;99721.72;5013535;28;45309;-77
2021/11/26 06:59:15;;;;;;;;;15.50;12.75;;;;;5.11;75.74;99687.56;5014603;28;45185;-79
2021/11/26 07:01:41;;;;;;;;;15.25;13.00;;;;;5.31;75.68;99715.59;5013248;28;46064;-76
2021/11/26 07:04:08;;;;;;;;;16.75;12.00;;;;;5.27;75.94;99703.53;5013786;28;45333;-77
2021/11/26 07:06:34;;;;;;;;;14.00;9.25;;;;;5.28;75.73;99699.19;5015302;28;45420;-73
2021/11/26 07:09:00;;;;;;;;;13.75;8.50;;;;;5.30;75.86;99707.81;5014411;28;45305;-75
2021/11/26 07:11:26;;;;;;;;;15.00;11.75;;;;;5.32;75.89;99696.44;5013707;28;47553;-75
2021/11/26 07:13:51;;;;;;;;;13.00;10.00;;;;;5.32;75.58;99693.84;5016299;28;45225;-77
2021/11/26 07:16:18;;;;;;;;;10.50;10.50;;;;;5.33;75.71;99686.84;5013123;28;45398;-76
2021/11/26 07:18:43;;;;;;;;;16.75;12.00;;;;;5.33;75.68;99685.13;5012415;28;45292;-75
2021/11/26 07:21:09;;;;;;;;;12.00;9.25;;;;;5.31;76.10;99671.28;5013341;28;46064;-74
2021/11/26 07:23:34;;;;;;;;;20.50;13.00;;;;;5.41;75.52;99680.50;5012851;28;45379;-75
2021/11/26 07:26:00;;;;;;;;;14.25;10.00;;;;;5.37;75.95;99660.63;5014423;28;45197;-77
2021/11/26 07:28:26;;;;;;;;;12.75;11.75;;;;;5.48;74.87;99667.25;5013768;28;45188;-76
2021/11/26 07:30:51;;;;;;;;;15.25;13.25;;;;;5.48;75.29;99662.03;5013015;28;46536;-76
2021/11/26 07:33:16;;;;;;;;;14.25;14.25;;;;;5.46;75.08;99656.84;5016348;28;45216;-77
2021/11/26 07:35:42;;;;;;;;;15.50;8.75;;;;;5.47;75.22;99652.50;5015994;28;45358;-76
2021/11/26 07:38:07;;;;;;;;;14.75;13.50;;;;;5.46;74.94;99650.78;5016383;28;45331;-77
2021/11/26 07:40:32;;;;;;;;;15.50;12.50;;;;;5.47;74.73;99648.13;5013985;28;45518;-75
2021/11/26 07:42:58;;;;;;;;;12.50;11.00;;;;;5.49;75.01;99640.25;5014025;28;45302;-76
2021/11/26 07:45:24;;;;;;;;;15.75;12.50;;;;;5.51;74.70;99638.44;5013846;28;45368;-77
2021/11/26 07:47:51;;;;;;;;;18.00;14.25;;;;;5.50;74.86;99626.31;5015579;28;45307;-76
2021/11/26 07:50:16;;;;;;;;;14.50;12.25;;;;;5.46;74.59;99616.88;5015413;28;46085;-77
2021/11/26 07:52:42;;;;;;;;;12.00;12.00;;;;;5.61;74.83;99637.22;5014081;28;45265;-75
2021/11/26 07:55:09;;;;;;;;;14.00;11.50;;;;;5.64;73.83;99636.25;5014437;28;45230;-76
2021/11/26 07:57:35;;;;;;;;;16.00;13.50;;;;;5.65;73.64;99628.38;5016165;28;45230;-73
2021/11/26 08:00:05;;;;;;;;;17.25;12.50;;;;;5.70;74.14;99638.63;5015328;28;47389;-74
2021/11/26 08:02:30;;;;;;;;;14.25;11.75;;;;;5.77;74.05;99628.84;5018918;27;45301;-74
2021/11/26 08:04:56;;;;;;;;;17.00;13.50;;;;;5.80;74.04;99628.75;5016527;28;45280;-72
2021/11/26 08:07:21;;;;;;;;;7.75;6.75;;;;;5.86;73.24;99618.06;5016117;28;45562;-73
2021/11/26 08:09:46;;;;;;;;;21.50;17.00;;;;;5.87;74.05;99598.91;5015698;27;48414;-75
2021/11/26 08:12:12;;;;;;;;;12.25;12.25;;;;;5.92;73.01;99598.75;5015296;28;45357;-75
2021/11/26 08:14:37;;;;;;;;;14.25;12.75;;;;;5.95;72.61;99583.81;5016142;28;45427;-75
2021/11/26 08:17:03;;;;;;;;;20.00;13.25;;;;;5.99;72.81;99582.78;5017973;28;45236;-75
2021/11/26 08:19:29;;;;;;;;;19.00;11.75;;;;;6.06;72.23;99573.00;5018484;28;45990;-75
2021/11/26 08:21:55;;;;;;;;;13.00;10.75;;;;;6.10;72.93;99568.50;5016876;28;45415;-79
2021/11/26 08:24:21;;;;;;;;;11.00;10.50;;;;;6.13;71.93;99574.47;5019449;28;45324;-74
2021/11/26 08:26:48;;;;;;;;;17.25;10.25;;;;;6.16;71.78;99583.94;5020815;28;45318;-76
2021/11/26 08:29:13;;;;;;;;;10.75;10.75;;;;;6.13;72.47;99571.00;5016098;28;46271;-75
2021/11/26 08:31:39;;;;;;;;;13.00;12.00;;;;;6.22;71.70;99575.03;5015818;28;45357;-75
2021/11/26 08:34:06;;;;;;;;;8.25;8.25;;;;;6.25;71.33;99573.13;5016433;28;45418;-74
2021/11/26 08:36:32;;;;;;;;;14.75;10.00;;;;;6.26;72.16;99568.78;5015231;28;45473;-74
2021/11/26 08:38:58;;;;;;;;;12.25;8.75;;;;;6.31;71.24;99568.59;5017470;28;45639;-74
2021/11/26 08:41:25;;;;;;;;;14.00;8.75;;;;;6.33;71.44;99570.25;5019203;28;45339;-75
2021/11/26 08:43:51;;;;;;;;;15.75;10.50;;;;;6.29;71.15;99564.28;5021597;28;45227;-75
2021/11/26 08:46:17;;;;;;;;;14.75;10.75;;;;;6.29;70.12;99561.66;5020773;28;45388;-75
2021/11/26 08:48:43;;;;;;;;;15.75;9.25;;;;;6.28;70.60;99557.34;5015427;28;45423;-75
2021/11/26 08:51:09;;;;;;;;;14.25;9.75;;;;;6.24;70.44;99550.53;5015213;28;45379;-76
2021/11/26 08:53:39;;;;;;;;;10.00;10.00;;;;;6.28;70.47;99562.56;5016398;28;45343;-77
2021/11/26 08:56:05;;;;;;;;;14.25;10.50;;;;;6.32;70.76;99559.84;5015979;28;45589;-75
2021/11/26 08:58:32;;;;;;;;;12.25;11.25;;;;;6.33;70.36;99554.56;5014823;28;46083;-77
2021/11/26 09:00:58;;;;;;;;;11.25;9.25;;;;;6.29;70.38;99553.81;5015098;28;45403;-78
2021/11/26 09:03:23;;;;;;;;;14.25;11.00;;;;;6.31;70.26;99552.91;5016904;28;45350;-76
2021/11/26 09:05:49;;;;;;;;;10.50;9.00;;;;;6.31;69.82;99551.16;5015277;28;45496;-76
2021/11/26 09:08:15;;;;;;;;;9.25;7.75;;;;;6.25;69.91;99540.97;5015676;28;47224;-76
2021/11/26 09:10:43;;;;;;;;;13.75;10.75;;;;;6.34;69.38;99537.13;5016438;28;45369;-77
2021/11/26 09:13:09;;;;;;;;;13.50;12.50;;;;;6.42;69.22;99530.69;5017101;28;45390;-77
2021/11/26 09:15:35;;;;;;;;;11.00;9.00;;;;;6.50;69.50;99537.38;5018255;28;45270;-77
2021/11/26 09:18:03;;;;;;;;;17.75;10.00;;;;;6.58;69.38;99535.31;5015675;28;45431;-74
2021/11/26 09:20:28;;;;;;;;;11.50;11.25;;;;;6.61;68.69;99518.66;5017356;28;45361;-75
2021/11/26 09:22:54;;;;;;;;;17.00;11.75;;;;;6.57;68.70;99500.50;5014865;28;45369;-76
2021/11/26 09:25:20;;;;;;;;;16.25;14.00;;;;;6.54;68.77;99498.03;5015040;28;45514;-75
2021/11/26 09:27:46;;;;;;;;;12.75;10.00;;;;;6.26;68.85;99456.47;5017076;28;47409;-76
2021/11/26 09:30:15;;;;;;;;;6.50;6.00;;;;;6.53;68.08;99491.09;5016972;28;45531;-76
2021/11/26 09:32:41;;;;;;;;;11.50;7.75;;;;;6.55;68.41;99484.03;5016512;28;45281;-76
2021/11/26 09:35:07;;;;;;;;;15.00;10.25;;;;;6.58;68.06;99469.97;5017167;28;45260;-75
2021/11/26 09:37:32;;;;;;;;;7.00;6.75;;;;;6.61;68.66;99471.63;5016396;28;47086;-75
2021/11/26 09:39:58;;;;;;;;;13.75;8.75;;;;;6.63;68.43;99456.75;5015315;28;45400;-76
2021/11/26 09:42:24;;;;;;;;;11.25;7.25;;;;;6.60;67.70;99449.03;5013782;28;45417;-75
2021/11/26 09:44:54;;;;;;;;;8.50;7.00;;;;;6.64;67.18;99448.81;5017515;28;45345;-76
2021/11/26 09:47:19;;;;;;;;;11.75;8.00;;;;;6.46;66.38;99393.00;5017125;27;47226;-76
2021/11/26 09:49:45;;;;;;;;;10.00;5.50;;;;;6.87;67.09;99444.38;5015492;27;45324;-76
2021/11/26 09:52:10;;;;;;;;;4.75;4.75;;;;;6.98;66.05;99431.72;5014457;28;45453;-77
2021/11/26 09:54:41;;;;;;;;;9.00;7.00;;;;;7.09;66.11;99431.22;5014811;28;45601;-76
2021/11/26 09:57:09;;;;;;;;;7.75;6.00;;;;;7.21;65.11;99422.00;5014545;28;45665;-78
2021/11/26 09:59:37;;;;;;;;;6.25;5.25;;;;;7.27;65.93;99413.88;5014904;28;45233;-78
2021/11/26 10:02:11;;;;;;;;;6.75;5.50;;;;;7.37;65.54;99409.06;5014778;28;45526;-78
2021/11/26 10:04:37;;;;;;;;;7.25;5.00;;;;;7.41;65.10;99405.38;5015051;28;45324;-75
2021/11/26 10:07:04;;;;;;;;;5.50;5.50;;;;;7.45;63.93;99403.47;5013357;28;46547;-75
2021/11/26 10:09:34;;;;;;;;;9.00;6.75;;;;;7.47;64.20;99393.78;5016187;28;45358;-77
2021/11/26 10:12:10;;;;;;;;;9.25;6.75;;;;;7.44;64.64;99396.53;5014146;28;45312;-78
2021/11/26 10:14:41;;;;;;;;;8.75;6.75;;;;;7.10;64.43;99330.94;5015144;28;45436;-76
2021/11/26 10:17:12;;;;;;;;;10.25;7.50;;;;;7.43;64.08;99384.38;5013952;28;45357;-76
2021/11/26 10:19:42;;;;;;;;;3.50;3.50;;;;;7.37;63.35;99379.44;5014208;28;45374;-75
2021/11/26 10:22:24;;;;;;;;;8.00;6.75;;;;;7.31;64.25;99370.09;5014693;28;45377;-75
2021/11/26 10:25:10;;;;;;;;;13.50;11.50;;;;;7.34;64.43;99358.66;5015286;28;45369;-77
2021/11/26 10:27:55;;;;;;;;;8.25;6.50;;;;;7.38;64.66;99349.75;5013538;27;47942;-77
2021/11/26 10:30:26;;;;;;;;;7.75;7.75;;;;;7.43;63.91;99337.28;5014736;28;45435;-76
2021/11/26 10:33:13;;;;;;;;;8.50;7.00;;;;;7.48;64.29;99324.84;5013463;28;45477;-77
2021/11/26 10:35:50;;;;;;;;;8.00;6.25;;;;;7.45;63.87;99320.63;5014933;27;45441;-74
2021/11/26 10:38:21;;;;;;;;;16.75;10.75;;;;;7.48;64.54;99313.53;5014729;28;46513;-78
2021/11/26 10:40:53;;;;;;;;;13.25;8.50;;;;;7.55;64.35;99296.63;5014944;28;45468;-78
2021/11/26 10:43:31;;;;;;;;;7.25;6.25;;;;;7.53;63.73;99282.75;5014445;28;45238;-75
2021/11/26 10:49:08;;;;;;;;;8.75;7.75;;;;;7.66;63.25;99283.00;5013765;28;45922;-79
2021/11/26 10:59:47;;;;;;;;;7.25;6.00;;;;;7.78;62.72;99274.53;5016078;28;45343;-74
2021/11/26 11:02:34;;;;;;;;;10.50;9.00;;;;;7.84;62.18;99257.69;5012681;28;45213;-76
2021/11/26 11:05:00;;;;;;;;;8.25;6.00;;;;;7.93;62.72;99254.59;5013818;28;45242;-78
2021/11/26 11:07:45;;;;;;;;;11.00;9.00;;;;;7.96;62.12;99251.00;5016202;28;45224;-77
2021/11/26 11:10:35;;;;;;;;;7.50;6.00;;;;;7.91;62.18;99238.13;5014549;28;48118;-78
2021/11/26 11:13:09;;;;;;;;;5.75;5.50;;;;;7.88;61.61;99231.25;5013380;28;45449;-77
2021/11/26 11:15:35;;;;;;;;;8.25;8.25;;;;;7.83;62.10;99212.31;5013074;28;45333;-79
2021/11/26 11:18:00;;;;;;;;;8.00;6.75;;;;;7.86;62.54;99208.72;5012726;28;45354;-78
2021/11/26 11:20:26;;;;;;;;;7.75;5.75;;;;;7.87;62.85;99189.47;5013908;28;45495;-80
2021/11/26 11:22:53;;;;;;;;;5.75;5.00;;;;;7.96;61.94;99193.41;5013382;27;45362;-78
2021/11/26 11:25:25;;;;;;;;;8.50;6.00;;;;;7.96;62.35;99172.44;5015650;28;45312;-77
2021/11/26 11:27:57;;;;;;;;;5.50;4.75;;;;;7.98;62.30;99162.75;5013399;28;45342;-76
2021/11/26 11:30:23;;;;;;;;;6.75;5.00;;;;;8.01;61.82;99159.97;5012525;28;45609;-78
2021/11/26 11:32:49;;;;;;;;;14.75;10.50;;;;;7.82;62.17;99112.94;5012841;28;45317;-77
2021/11/26 11:35:15;;;;;;;;;6.00;5.00;;;;;7.98;62.75;99141.78;5011585;28;45289;-78
2021/11/26 11:37:42;;;;;;;;;11.25;8.25;;;;;7.97;62.33;99121.78;5012434;28;45611;-77
2021/11/26 11:40:09;;;;;;;;;5.00;5.00;;;;;8.02;61.84;99120.59;5011222;28;46319;-79